sensor_id;sensor_type;location;lat;lon;timestamp;P1;durP1;ratioP1;P2;durP2;ratioP2
12663;SDS011;6396;58.490;15.528;2023-03-12T00:01:58;1.17;;;1.07;;
12663;SDS011;6396;58.490;15.528;2023-03-12T00:04:25;2.00;;;1.00;;
12663;SDS011;6396;58.490;15.528;2023-03-12T00:06:52;1.73;;;1.27;;
12663;SDS011;6396;58.490;15.528;2023-03-12T00:09:19;1.43;;;1.20;;
12663;SDS011;6396;58.490;15.528;2023-03-12T00:11:46;2.77;;;1.43;;
12663;SDS011;6396;58.490;15.528;2023-03-12T00:14:14;3.60;;;2.20;;
12663;SDS011;6396;58.490;15.528;2023-03-12T00:16:40;4.93;;;2.10;;
12663;SDS011;6396;58.490;15.528;2023-03-12T00:19:08;2.87;;;1.87;;
12663;SDS011;6396;58.490;15.528;2023-03-12T00:21:37;4.63;;;3.00;;
12663;SDS011;6396;58.490;15.528;2023-03-12T00:24:04;5.17;;;3.10;;
12663;SDS011;6396;58.490;15.528;2023-03-12T00:26:32;7.17;;;3.90;;
12663;SDS011;6396;58.490;15.528;2023-03-12T00:28:59;9.20;;;4.80;;
12663;SDS011;6396;58.490;15.528;2023-03-12T00:31:28;9.23;;;4.37;;
12663;SDS011;6396;58.490;15.528;2023-03-12T00:33:57;7.23;;;3.73;;
12663;SDS011;6396;58.490;15.528;2023-03-12T00:36:25;7.37;;;4.83;;
12663;SDS011;6396;58.490;15.528;2023-03-12T00:38:54;10.43;;;5.40;;
12663;SDS011;6396;58.490;15.528;2023-03-12T00:41:21;8.10;;;4.43;;
12663;SDS011;6396;58.490;15.528;2023-03-12T00:43:48;11.43;;;6.30;;
12663;SDS011;6396;58.490;15.528;2023-03-12T00:46:16;15.97;;;8.03;;
12663;SDS011;6396;58.490;15.528;2023-03-12T00:48:44;13.57;;;7.03;;
12663;SDS011;6396;58.490;15.528;2023-03-12T00:51:11;11.57;;;6.30;;
12663;SDS011;6396;58.490;15.528;2023-03-12T00:53:38;20.97;;;9.23;;
12663;SDS011;6396;58.490;15.528;2023-03-12T00:56:06;6.60;;;3.37;;
12663;SDS011;6396;58.490;15.528;2023-03-12T00:58:33;2.23;;;1.63;;
12663;SDS011;6396;58.490;15.528;2023-03-12T01:01:00;3.17;;;2.20;;
12663;SDS011;6396;58.490;15.528;2023-03-12T01:03:26;6.33;;;4.20;;
12663;SDS011;6396;58.490;15.528;2023-03-12T01:05:55;6.00;;;4.13;;
12663;SDS011;6396;58.490;15.528;2023-03-12T01:08:22;5.33;;;3.77;;
12663;SDS011;6396;58.490;15.528;2023-03-12T01:10:49;7.53;;;4.33;;
12663;SDS011;6396;58.490;15.528;2023-03-12T01:13:16;12.20;;;6.30;;
12663;SDS011;6396;58.490;15.528;2023-03-12T01:15:43;8.67;;;5.33;;
12663;SDS011;6396;58.490;15.528;2023-03-12T01:18:10;5.27;;;3.40;;
12663;SDS011;6396;58.490;15.528;2023-03-12T01:20:37;4.60;;;2.87;;
12663;SDS011;6396;58.490;15.528;2023-03-12T01:23:06;7.53;;;4.47;;
12663;SDS011;6396;58.490;15.528;2023-03-12T01:25:34;5.47;;;3.13;;
12663;SDS011;6396;58.490;15.528;2023-03-12T01:28:01;5.23;;;3.13;;
12663;SDS011;6396;58.490;15.528;2023-03-12T01:30:28;5.60;;;3.50;;
12663;SDS011;6396;58.490;15.528;2023-03-12T01:32:55;3.87;;;2.33;;
12663;SDS011;6396;58.490;15.528;2023-03-12T01:35:22;6.17;;;3.30;;
12663;SDS011;6396;58.490;15.528;2023-03-12T01:37:49;6.47;;;3.50;;
12663;SDS011;6396;58.490;15.528;2023-03-12T01:40:19;6.07;;;3.13;;
12663;SDS011;6396;58.490;15.528;2023-03-12T01:42:52;6.50;;;2.67;;
12663;SDS011;6396;58.490;15.528;2023-03-12T01:48:27;4.83;;;2.90;;
12663;SDS011;6396;58.490;15.528;2023-03-12T01:50:59;9.43;;;5.13;;
12663;SDS011;6396;58.490;15.528;2023-03-12T01:53:28;8.30;;;5.27;;
12663;SDS011;6396;58.490;15.528;2023-03-12T01:55:57;9.27;;;5.47;;
12663;SDS011;6396;58.490;15.528;2023-03-12T01:58:26;5.13;;;3.83;;
12663;SDS011;6396;58.490;15.528;2023-03-12T02:00:57;5.83;;;3.43;;
12663;SDS011;6396;58.490;15.528;2023-03-12T02:03:25;6.57;;;3.70;;
12663;SDS011;6396;58.490;15.528;2023-03-12T02:05:53;4.90;;;3.43;;
12663;SDS011;6396;58.490;15.528;2023-03-12T02:08:23;7.57;;;4.07;;
12663;SDS011;6396;58.490;15.528;2023-03-12T02:10:50;8.03;;;4.20;;
12663;SDS011;6396;58.490;15.528;2023-03-12T02:13:18;9.47;;;4.83;;
12663;SDS011;6396;58.490;15.528;2023-03-12T02:15:45;20.23;;;9.20;;
12663;SDS011;6396;58.490;15.528;2023-03-12T02:18:14;22.80;;;11.17;;
12663;SDS011;6396;58.490;15.528;2023-03-12T02:20:44;14.30;;;8.33;;
12663;SDS011;6396;58.490;15.528;2023-03-12T02:23:17;13.13;;;7.00;;
12663;SDS011;6396;58.490;15.528;2023-03-12T02:25:53;3.57;;;2.60;;
12663;SDS011;6396;58.490;15.528;2023-03-12T02:28:22;5.17;;;2.67;;
12663;SDS011;6396;58.490;15.528;2023-03-12T02:30:51;4.80;;;2.93;;
12663;SDS011;6396;58.490;15.528;2023-03-12T02:33:22;9.67;;;5.80;;
12663;SDS011;6396;58.490;15.528;2023-03-12T02:35:50;8.43;;;5.37;;
12663;SDS011;6396;58.490;15.528;2023-03-12T02:41:07;14.97;;;7.80;;
12663;SDS011;6396;58.490;15.528;2023-03-12T02:43:37;17.33;;;9.23;;
12663;SDS011;6396;58.490;15.528;2023-03-12T02:46:05;16.17;;;8.20;;
12663;SDS011;6396;58.490;15.528;2023-03-12T02:48:34;14.53;;;7.33;;
12663;SDS011;6396;58.490;15.528;2023-03-12T02:51:00;10.47;;;5.97;;
12663;SDS011;6396;58.490;15.528;2023-03-12T02:53:28;11.63;;;6.20;;
12663;SDS011;6396;58.490;15.528;2023-03-12T02:55:55;8.07;;;4.20;;
12663;SDS011;6396;58.490;15.528;2023-03-12T02:58:23;8.83;;;5.40;;
12663;SDS011;6396;58.490;15.528;2023-03-12T03:00:50;5.97;;;3.73;;
12663;SDS011;6396;58.490;15.528;2023-03-12T03:03:17;6.27;;;3.77;;
12663;SDS011;6396;58.490;15.528;2023-03-12T03:05:44;4.73;;;3.20;;
12663;SDS011;6396;58.490;15.528;2023-03-12T03:08:11;2.27;;;1.63;;
12663;SDS011;6396;58.490;15.528;2023-03-12T03:10:38;2.17;;;1.50;;
12663;SDS011;6396;58.490;15.528;2023-03-12T03:13:04;3.17;;;1.80;;
12663;SDS011;6396;58.490;15.528;2023-03-12T03:15:33;5.87;;;2.40;;
12663;SDS011;6396;58.490;15.528;2023-03-12T03:18:00;6.77;;;4.63;;
12663;SDS011;6396;58.490;15.528;2023-03-12T03:20:28;3.57;;;2.17;;
12663;SDS011;6396;58.490;15.528;2023-03-12T03:22:56;2.57;;;1.40;;
12663;SDS011;6396;58.490;15.528;2023-03-12T03:25:23;3.00;;;1.53;;
12663;SDS011;6396;58.490;15.528;2023-03-12T03:27:49;1.73;;;1.30;;
12663;SDS011;6396;58.490;15.528;2023-03-12T03:30:17;2.03;;;1.50;;
12663;SDS011;6396;58.490;15.528;2023-03-12T03:32:47;1.83;;;1.33;;
12663;SDS011;6396;58.490;15.528;2023-03-12T03:35:14;3.27;;;1.60;;
12663;SDS011;6396;58.490;15.528;2023-03-12T03:37:41;1.60;;;1.47;;
12663;SDS011;6396;58.490;15.528;2023-03-12T03:40:08;1.53;;;1.20;;
12663;SDS011;6396;58.490;15.528;2023-03-12T03:42:36;3.73;;;1.50;;
12663;SDS011;6396;58.490;15.528;2023-03-12T03:45:05;1.93;;;1.70;;
12663;SDS011;6396;58.490;15.528;2023-03-12T03:47:34;1.87;;;1.50;;
12663;SDS011;6396;58.490;15.528;2023-03-12T03:50:03;1.70;;;1.30;;
12663;SDS011;6396;58.490;15.528;2023-03-12T03:52:31;1.63;;;1.40;;
12663;SDS011;6396;58.490;15.528;2023-03-12T03:54:58;1.50;;;1.40;;
12663;SDS011;6396;58.490;15.528;2023-03-12T03:57:25;2.60;;;1.03;;
12663;SDS011;6396;58.490;15.528;2023-03-12T03:59:52;2.00;;;1.33;;
12663;SDS011;6396;58.490;15.528;2023-03-12T04:02:19;1.30;;;1.20;;
12663;SDS011;6396;58.490;15.528;2023-03-12T04:04:46;1.37;;;1.10;;
12663;SDS011;6396;58.490;15.528;2023-03-12T04:07:15;1.40;;;1.30;;
12663;SDS011;6396;58.490;15.528;2023-03-12T04:09:42;1.63;;;1.27;;
12663;SDS011;6396;58.490;15.528;2023-03-12T04:12:09;2.73;;;1.40;;
12663;SDS011;6396;58.490;15.528;2023-03-12T04:14:38;2.00;;;1.27;;
12663;SDS011;6396;58.490;15.528;2023-03-12T04:17:06;1.83;;;1.40;;
12663;SDS011;6396;58.490;15.528;2023-03-12T04:19:33;1.77;;;1.20;;
12663;SDS011;6396;58.490;15.528;2023-03-12T04:22:00;1.30;;;1.20;;
12663;SDS011;6396;58.490;15.528;2023-03-12T04:24:28;1.20;;;1.00;;
12663;SDS011;6396;58.490;15.528;2023-03-12T04:26:55;2.30;;;1.13;;
12663;SDS011;6396;58.490;15.528;2023-03-12T04:29:23;2.73;;;1.13;;
12663;SDS011;6396;58.490;15.528;2023-03-12T04:31:50;1.67;;;1.10;;
12663;SDS011;6396;58.490;15.528;2023-03-12T04:34:17;1.03;;;0.97;;
12663;SDS011;6396;58.490;15.528;2023-03-12T04:36:44;1.30;;;1.20;;
12663;SDS011;6396;58.490;15.528;2023-03-12T04:39:15;1.53;;;1.10;;
12663;SDS011;6396;58.490;15.528;2023-03-12T04:41:44;1.13;;;1.13;;
12663;SDS011;6396;58.490;15.528;2023-03-12T04:44:11;1.70;;;1.00;;
12663;SDS011;6396;58.490;15.528;2023-03-12T04:46:37;1.20;;;1.10;;
12663;SDS011;6396;58.490;15.528;2023-03-12T04:49:04;1.20;;;1.10;;
12663;SDS011;6396;58.490;15.528;2023-03-12T04:51:31;1.23;;;1.13;;
12663;SDS011;6396;58.490;15.528;2023-03-12T04:53:58;2.57;;;1.20;;
12663;SDS011;6396;58.490;15.528;2023-03-12T04:56:25;1.87;;;1.07;;
12663;SDS011;6396;58.490;15.528;2023-03-12T04:58:53;2.03;;;1.23;;
12663;SDS011;6396;58.490;15.528;2023-03-12T05:01:21;1.63;;;1.30;;
12663;SDS011;6396;58.490;15.528;2023-03-12T05:03:50;1.70;;;1.30;;
12663;SDS011;6396;58.490;15.528;2023-03-12T05:06:17;2.30;;;1.40;;
12663;SDS011;6396;58.490;15.528;2023-03-12T05:08:45;1.60;;;1.30;;
12663;SDS011;6396;58.490;15.528;2023-03-12T05:11:12;1.17;;;1.00;;
12663;SDS011;6396;58.490;15.528;2023-03-12T05:13:39;0.93;;;0.90;;
12663;SDS011;6396;58.490;15.528;2023-03-12T05:16:08;1.50;;;1.20;;
12663;SDS011;6396;58.490;15.528;2023-03-12T05:18:36;1.40;;;1.10;;
12663;SDS011;6396;58.490;15.528;2023-03-12T05:21:04;0.90;;;0.90;;
12663;SDS011;6396;58.490;15.528;2023-03-12T05:23:32;2.27;;;1.33;;
12663;SDS011;6396;58.490;15.528;2023-03-12T05:25:59;1.07;;;0.97;;
12663;SDS011;6396;58.490;15.528;2023-03-12T05:28:27;1.30;;;1.10;;
12663;SDS011;6396;58.490;15.528;2023-03-12T05:30:54;1.40;;;1.20;;
12663;SDS011;6396;58.490;15.528;2023-03-12T05:33:23;2.10;;;1.10;;
12663;SDS011;6396;58.490;15.528;2023-03-12T05:35:50;1.43;;;0.97;;
12663;SDS011;6396;58.490;15.528;2023-03-12T05:38:17;0.90;;;0.90;;
12663;SDS011;6396;58.490;15.528;2023-03-12T05:40:49;1.20;;;1.10;;
12663;SDS011;6396;58.490;15.528;2023-03-12T05:43:17;1.10;;;1.00;;
12663;SDS011;6396;58.490;15.528;2023-03-12T05:45:44;1.60;;;1.17;;
12663;SDS011;6396;58.490;15.528;2023-03-12T05:48:11;1.17;;;1.00;;
12663;SDS011;6396;58.490;15.528;2023-03-12T05:50:39;2.40;;;1.13;;
12663;SDS011;6396;58.490;15.528;2023-03-12T05:53:06;1.70;;;1.07;;
12663;SDS011;6396;58.490;15.528;2023-03-12T05:55:33;1.00;;;1.00;;
12663;SDS011;6396;58.490;15.528;2023-03-12T05:58:01;1.03;;;1.00;;
12663;SDS011;6396;58.490;15.528;2023-03-12T06:00:28;1.00;;;0.87;;
12663;SDS011;6396;58.490;15.528;2023-03-12T06:02:55;2.20;;;1.07;;
12663;SDS011;6396;58.490;15.528;2023-03-12T06:05:22;1.17;;;0.90;;
12663;SDS011;6396;58.490;15.528;2023-03-12T06:07:50;1.60;;;1.10;;
12663;SDS011;6396;58.490;15.528;2023-03-12T06:10:17;1.10;;;1.00;;
12663;SDS011;6396;58.490;15.528;2023-03-12T06:12:44;1.80;;;1.20;;
12663;SDS011;6396;58.490;15.528;2023-03-12T06:15:11;1.50;;;1.30;;
12663;SDS011;6396;58.490;15.528;2023-03-12T06:17:38;2.37;;;1.20;;
12663;SDS011;6396;58.490;15.528;2023-03-12T06:20:05;1.30;;;1.20;;
12663;SDS011;6396;58.490;15.528;2023-03-12T06:22:33;1.20;;;1.10;;
12663;SDS011;6396;58.490;15.528;2023-03-12T06:25:02;1.93;;;1.23;;
12663;SDS011;6396;58.490;15.528;2023-03-12T06:27:29;1.30;;;1.00;;
12663;SDS011;6396;58.490;15.528;2023-03-12T06:29:56;1.57;;;1.10;;
12663;SDS011;6396;58.490;15.528;2023-03-12T06:32:22;0.90;;;0.90;;
12663;SDS011;6396;58.490;15.528;2023-03-12T06:34:50;4.10;;;1.10;;
12663;SDS011;6396;58.490;15.528;2023-03-12T06:37:17;1.87;;;1.27;;
12663;SDS011;6396;58.490;15.528;2023-03-12T06:39:47;3.00;;;1.07;;
12663;SDS011;6396;58.490;15.528;2023-03-12T06:42:15;1.63;;;0.97;;
12663;SDS011;6396;58.490;15.528;2023-03-12T06:44:43;1.53;;;1.10;;
12663;SDS011;6396;58.490;15.528;2023-03-12T06:47:10;2.30;;;1.13;;
12663;SDS011;6396;58.490;15.528;2023-03-12T06:49:37;1.47;;;1.07;;
12663;SDS011;6396;58.490;15.528;2023-03-12T06:52:04;1.47;;;1.03;;
12663;SDS011;6396;58.490;15.528;2023-03-12T06:54:33;1.20;;;1.07;;
12663;SDS011;6396;58.490;15.528;2023-03-12T06:57:00;1.83;;;1.20;;
12663;SDS011;6396;58.490;15.528;2023-03-12T06:59:28;1.47;;;1.10;;
12663;SDS011;6396;58.490;15.528;2023-03-12T07:04:42;1.93;;;1.20;;
12663;SDS011;6396;58.490;15.528;2023-03-12T07:07:09;2.00;;;1.07;;
12663;SDS011;6396;58.490;15.528;2023-03-12T07:09:37;1.43;;;1.20;;
12663;SDS011;6396;58.490;15.528;2023-03-12T07:12:04;1.37;;;0.93;;
12663;SDS011;6396;58.490;15.528;2023-03-12T07:14:32;1.73;;;1.10;;
12663;SDS011;6396;58.490;15.528;2023-03-12T07:17:00;1.30;;;1.13;;
12663;SDS011;6396;58.490;15.528;2023-03-12T07:19:28;1.57;;;1.10;;
12663;SDS011;6396;58.490;15.528;2023-03-12T07:21:56;0.93;;;0.90;;
12663;SDS011;6396;58.490;15.528;2023-03-12T07:24:23;1.13;;;1.03;;
12663;SDS011;6396;58.490;15.528;2023-03-12T07:26:50;1.43;;;1.00;;
12663;SDS011;6396;58.490;15.528;2023-03-12T07:29:16;1.20;;;1.10;;
12663;SDS011;6396;58.490;15.528;2023-03-12T07:31:45;1.20;;;1.10;;
12663;SDS011;6396;58.490;15.528;2023-03-12T07:34:12;0.87;;;0.83;;
12663;SDS011;6396;58.490;15.528;2023-03-12T07:36:42;1.10;;;1.00;;
12663;SDS011;6396;58.490;15.528;2023-03-12T07:39:09;1.20;;;1.10;;
12663;SDS011;6396;58.490;15.528;2023-03-12T07:41:35;1.67;;;1.10;;
12663;SDS011;6396;58.490;15.528;2023-03-12T07:44:03;1.80;;;0.97;;
12663;SDS011;6396;58.490;15.528;2023-03-12T07:46:30;1.90;;;1.10;;
12663;SDS011;6396;58.490;15.528;2023-03-12T07:48:59;1.17;;;1.07;;
12663;SDS011;6396;58.490;15.528;2023-03-12T07:51:26;1.20;;;1.00;;
12663;SDS011;6396;58.490;15.528;2023-03-12T07:53:53;1.10;;;1.00;;
12663;SDS011;6396;58.490;15.528;2023-03-12T07:56:19;1.70;;;1.10;;
12663;SDS011;6396;58.490;15.528;2023-03-12T07:58:46;1.57;;;1.00;;
12663;SDS011;6396;58.490;15.528;2023-03-12T08:01:13;1.37;;;1.10;;
12663;SDS011;6396;58.490;15.528;2023-03-12T08:03:40;1.77;;;0.90;;
12663;SDS011;6396;58.490;15.528;2023-03-12T08:06:09;1.60;;;1.10;;
12663;SDS011;6396;58.490;15.528;2023-03-12T08:08:36;2.50;;;1.20;;
12663;SDS011;6396;58.490;15.528;2023-03-12T08:11:06;1.90;;;1.40;;
12663;SDS011;6396;58.490;15.528;2023-03-12T08:13:33;1.23;;;1.10;;
12663;SDS011;6396;58.490;15.528;2023-03-12T08:16:00;1.00;;;0.97;;
12663;SDS011;6396;58.490;15.528;2023-03-12T08:18:27;1.20;;;1.10;;
12663;SDS011;6396;58.490;15.528;2023-03-12T08:20:54;1.00;;;0.80;;
12663;SDS011;6396;58.490;15.528;2023-03-12T08:23:23;1.50;;;1.00;;
12663;SDS011;6396;58.490;15.528;2023-03-12T08:25:50;1.60;;;1.10;;
12663;SDS011;6396;58.490;15.528;2023-03-12T08:28:19;1.40;;;1.10;;
12663;SDS011;6396;58.490;15.528;2023-03-12T08:30:47;1.00;;;0.90;;
12663;SDS011;6396;58.490;15.528;2023-03-12T08:33:15;1.93;;;1.20;;
12663;SDS011;6396;58.490;15.528;2023-03-12T08:35:42;1.63;;;1.07;;
12663;SDS011;6396;58.490;15.528;2023-03-12T08:38:09;1.37;;;0.90;;
12663;SDS011;6396;58.490;15.528;2023-03-12T08:40:37;1.20;;;1.00;;
12663;SDS011;6396;58.490;15.528;2023-03-12T08:43:04;1.27;;;1.10;;
12663;SDS011;6396;58.490;15.528;2023-03-12T08:45:32;2.10;;;1.30;;
12663;SDS011;6396;58.490;15.528;2023-03-12T08:48:00;1.70;;;1.30;;
12663;SDS011;6396;58.490;15.528;2023-03-12T08:50:27;1.43;;;1.07;;
12663;SDS011;6396;58.490;15.528;2023-03-12T08:52:56;1.30;;;1.20;;
12663;SDS011;6396;58.490;15.528;2023-03-12T08:55:23;1.60;;;1.10;;
12663;SDS011;6396;58.490;15.528;2023-03-12T08:57:51;1.40;;;1.20;;
12663;SDS011;6396;58.490;15.528;2023-03-12T09:00:18;1.53;;;1.20;;
12663;SDS011;6396;58.490;15.528;2023-03-12T09:02:45;1.87;;;1.10;;
12663;SDS011;6396;58.490;15.528;2023-03-12T09:05:14;1.43;;;0.90;;
12663;SDS011;6396;58.490;15.528;2023-03-12T09:07:41;1.80;;;1.10;;
12663;SDS011;6396;58.490;15.528;2023-03-12T09:10:08;1.40;;;1.13;;
12663;SDS011;6396;58.490;15.528;2023-03-12T09:12:35;3.33;;;1.13;;
12663;SDS011;6396;58.490;15.528;2023-03-12T09:15:04;1.40;;;1.20;;
12663;SDS011;6396;58.490;15.528;2023-03-12T09:17:32;1.10;;;1.00;;
12663;SDS011;6396;58.490;15.528;2023-03-12T09:19:59;0.97;;;0.93;;
12663;SDS011;6396;58.490;15.528;2023-03-12T09:22:27;1.10;;;1.10;;
12663;SDS011;6396;58.490;15.528;2023-03-12T09:24:54;1.23;;;0.90;;
12663;SDS011;6396;58.490;15.528;2023-03-12T09:27:21;1.37;;;1.07;;
12663;SDS011;6396;58.490;15.528;2023-03-12T09:29:48;2.70;;;1.20;;
12663;SDS011;6396;58.490;15.528;2023-03-12T09:32:17;1.30;;;0.90;;
12663;SDS011;6396;58.490;15.528;2023-03-12T09:34:43;1.17;;;1.00;;
12663;SDS011;6396;58.490;15.528;2023-03-12T09:37:10;1.50;;;0.87;;
12663;SDS011;6396;58.490;15.528;2023-03-12T09:39:37;0.90;;;0.80;;
12663;SDS011;6396;58.490;15.528;2023-03-12T09:42:04;1.80;;;1.00;;
12663;SDS011;6396;58.490;15.528;2023-03-12T09:44:38;0.70;;;0.70;;
12663;SDS011;6396;58.490;15.528;2023-03-12T09:47:09;1.47;;;1.00;;
12663;SDS011;6396;58.490;15.528;2023-03-12T09:49:44;1.27;;;1.03;;
12663;SDS011;6396;58.490;15.528;2023-03-12T09:52:17;1.33;;;1.13;;
12663;SDS011;6396;58.490;15.528;2023-03-12T09:54:51;0.90;;;0.90;;
12663;SDS011;6396;58.490;15.528;2023-03-12T09:57:24;0.80;;;0.80;;
12663;SDS011;6396;58.490;15.528;2023-03-12T09:59:54;1.10;;;1.00;;
12663;SDS011;6396;58.490;15.528;2023-03-12T10:05:22;1.53;;;1.10;;
12663;SDS011;6396;58.490;15.528;2023-03-12T10:07:58;0.93;;;0.80;;
12663;SDS011;6396;58.490;15.528;2023-03-12T10:13:29;1.83;;;0.90;;
12663;SDS011;6396;58.490;15.528;2023-03-12T10:16:12;1.10;;;1.00;;
12663;SDS011;6396;58.490;15.528;2023-03-12T10:18:55;1.07;;;0.80;;
12663;SDS011;6396;58.490;15.528;2023-03-12T10:21:33;0.93;;;0.93;;
12663;SDS011;6396;58.490;15.528;2023-03-12T10:24:07;1.07;;;0.90;;
12663;SDS011;6396;58.490;15.528;2023-03-12T10:26:48;0.90;;;0.90;;
12663;SDS011;6396;58.490;15.528;2023-03-12T10:29:17;1.10;;;0.83;;
12663;SDS011;6396;58.490;15.528;2023-03-12T10:31:50;1.83;;;0.90;;
12663;SDS011;6396;58.490;15.528;2023-03-12T10:34:22;1.97;;;1.00;;
12663;SDS011;6396;58.490;15.528;2023-03-12T10:36:57;0.80;;;0.80;;
12663;SDS011;6396;58.490;15.528;2023-03-12T10:39:28;1.10;;;0.80;;
12663;SDS011;6396;58.490;15.528;2023-03-12T10:41:54;1.00;;;0.90;;
12663;SDS011;6396;58.490;15.528;2023-03-12T10:44:25;1.33;;;0.97;;
12663;SDS011;6396;58.490;15.528;2023-03-12T10:46:56;1.17;;;0.80;;
12663;SDS011;6396;58.490;15.528;2023-03-12T10:49:32;1.17;;;1.07;;
12663;SDS011;6396;58.490;15.528;2023-03-12T10:52:03;1.37;;;0.90;;
12663;SDS011;6396;58.490;15.528;2023-03-12T10:54:33;0.83;;;0.83;;
12663;SDS011;6396;58.490;15.528;2023-03-12T10:57:02;0.80;;;0.80;;
12663;SDS011;6396;58.490;15.528;2023-03-12T10:59:30;1.33;;;0.97;;
12663;SDS011;6396;58.490;15.528;2023-03-12T11:01:59;1.00;;;0.90;;
12663;SDS011;6396;58.490;15.528;2023-03-12T11:04:30;0.87;;;0.77;;
12663;SDS011;6396;58.490;15.528;2023-03-12T11:09:52;0.97;;;0.80;;
12663;SDS011;6396;58.490;15.528;2023-03-12T11:12:38;1.53;;;0.90;;
12663;SDS011;6396;58.490;15.528;2023-03-12T11:15:16;1.53;;;0.90;;
12663;SDS011;6396;58.490;15.528;2023-03-12T11:17:44;0.70;;;0.70;;
12663;SDS011;6396;58.490;15.528;2023-03-12T11:20:23;5.23;;;0.90;;
12663;SDS011;6396;58.490;15.528;2023-03-12T11:22:54;1.27;;;0.90;;
12663;SDS011;6396;58.490;15.528;2023-03-12T11:25:22;0.97;;;0.80;;
12663;SDS011;6396;58.490;15.528;2023-03-12T11:27:52;0.90;;;0.90;;
12663;SDS011;6396;58.490;15.528;2023-03-12T11:30:21;1.57;;;0.80;;
12663;SDS011;6396;58.490;15.528;2023-03-12T11:32:50;0.77;;;0.77;;
12663;SDS011;6396;58.490;15.528;2023-03-12T11:35:18;1.20;;;0.70;;
12663;SDS011;6396;58.490;15.528;2023-03-12T11:37:57;0.60;;;0.60;;
12663;SDS011;6396;58.490;15.528;2023-03-12T11:40:32;1.43;;;0.70;;
12663;SDS011;6396;58.490;15.528;2023-03-12T11:43:21;0.80;;;0.70;;
12663;SDS011;6396;58.490;15.528;2023-03-12T11:46:04;1.77;;;0.97;;
12663;SDS011;6396;58.490;15.528;2023-03-12T11:48:40;0.70;;;0.70;;
12663;SDS011;6396;58.490;15.528;2023-03-12T11:51:20;0.63;;;0.63;;
12663;SDS011;6396;58.490;15.528;2023-03-12T11:53:58;0.70;;;0.70;;
12663;SDS011;6396;58.490;15.528;2023-03-12T11:56:38;1.13;;;0.70;;
12663;SDS011;6396;58.490;15.528;2023-03-12T11:59:12;0.90;;;0.70;;
12663;SDS011;6396;58.490;15.528;2023-03-12T12:01:57;0.70;;;0.70;;
12663;SDS011;6396;58.490;15.528;2023-03-12T12:04:40;0.87;;;0.70;;
12663;SDS011;6396;58.490;15.528;2023-03-12T12:07:28;3.43;;;0.80;;
12663;SDS011;6396;58.490;15.528;2023-03-12T12:10:09;0.90;;;0.90;;
12663;SDS011;6396;58.490;15.528;2023-03-12T12:12:49;0.80;;;0.70;;
12663;SDS011;6396;58.490;15.528;2023-03-12T12:15:24;0.83;;;0.83;;
12663;SDS011;6396;58.490;15.528;2023-03-12T12:18:01;0.97;;;0.63;;
12663;SDS011;6396;58.490;15.528;2023-03-12T12:20:42;1.40;;;0.80;;
12663;SDS011;6396;58.490;15.528;2023-03-12T12:23:15;0.73;;;0.73;;
12663;SDS011;6396;58.490;15.528;2023-03-12T12:31:40;1.40;;;0.77;;
12663;SDS011;6396;58.490;15.528;2023-03-12T12:37:21;0.90;;;0.80;;
12663;SDS011;6396;58.490;15.528;2023-03-12T12:39:58;0.60;;;0.60;;
12663;SDS011;6396;58.490;15.528;2023-03-12T12:42:35;1.37;;;0.80;;
12663;SDS011;6396;58.490;15.528;2023-03-12T12:45:16;1.07;;;0.87;;
12663;SDS011;6396;58.490;15.528;2023-03-12T12:47:52;0.70;;;0.70;;
12663;SDS011;6396;58.490;15.528;2023-03-12T12:50:26;1.40;;;0.80;;
12663;SDS011;6396;58.490;15.528;2023-03-12T12:53:11;0.70;;;0.70;;
12663;SDS011;6396;58.490;15.528;2023-03-12T12:55:42;1.80;;;0.90;;
12663;SDS011;6396;58.490;15.528;2023-03-12T12:58:20;1.23;;;0.90;;
12663;SDS011;6396;58.490;15.528;2023-03-12T13:00:53;0.80;;;0.80;;
12663;SDS011;6396;58.490;15.528;2023-03-12T13:03:24;0.73;;;0.73;;
12663;SDS011;6396;58.490;15.528;2023-03-12T13:06:05;1.43;;;1.10;;
12663;SDS011;6396;58.490;15.528;2023-03-12T13:08:34;0.70;;;0.70;;
12663;SDS011;6396;58.490;15.528;2023-03-12T13:11:23;0.70;;;0.70;;
12663;SDS011;6396;58.490;15.528;2023-03-12T13:16:48;0.77;;;0.77;;
12663;SDS011;6396;58.490;15.528;2023-03-12T13:19:31;1.97;;;0.83;;
12663;SDS011;6396;58.490;15.528;2023-03-12T13:22:08;1.13;;;0.80;;
12663;SDS011;6396;58.490;15.528;2023-03-12T13:24:43;2.63;;;0.87;;
12663;SDS011;6396;58.490;15.528;2023-03-12T13:27:17;1.60;;;0.90;;
12663;SDS011;6396;58.490;15.528;2023-03-12T13:29:49;0.93;;;0.90;;
12663;SDS011;6396;58.490;15.528;2023-03-12T13:32:37;1.90;;;0.80;;
12663;SDS011;6396;58.490;15.528;2023-03-12T13:35:33;1.37;;;0.80;;
12663;SDS011;6396;58.490;15.528;2023-03-12T13:38:03;1.20;;;0.70;;
12663;SDS011;6396;58.490;15.528;2023-03-12T13:40:33;1.30;;;0.80;;
12663;SDS011;6396;58.490;15.528;2023-03-12T13:43:02;1.37;;;0.70;;
12663;SDS011;6396;58.490;15.528;2023-03-12T13:45:41;0.80;;;0.80;;
12663;SDS011;6396;58.490;15.528;2023-03-12T13:48:21;1.60;;;0.80;;
12663;SDS011;6396;58.490;15.528;2023-03-12T13:50:50;1.10;;;0.93;;
12663;SDS011;6396;58.490;15.528;2023-03-12T13:53:23;0.87;;;0.70;;
12663;SDS011;6396;58.490;15.528;2023-03-12T13:55:59;0.77;;;0.77;;
12663;SDS011;6396;58.490;15.528;2023-03-12T13:58:29;1.17;;;1.00;;
12663;SDS011;6396;58.490;15.528;2023-03-12T14:00:59;0.93;;;0.60;;
12663;SDS011;6396;58.490;15.528;2023-03-12T14:03:29;1.33;;;0.80;;
12663;SDS011;6396;58.490;15.528;2023-03-12T14:05:59;1.00;;;0.67;;
12663;SDS011;6396;58.490;15.528;2023-03-12T14:08:46;0.70;;;0.70;;
12663;SDS011;6396;58.490;15.528;2023-03-12T14:11:40;0.70;;;0.70;;
12663;SDS011;6396;58.490;15.528;2023-03-12T14:17:17;1.10;;;0.50;;
12663;SDS011;6396;58.490;15.528;2023-03-12T14:19:49;1.00;;;0.70;;
12663;SDS011;6396;58.490;15.528;2023-03-12T14:22:17;0.60;;;0.60;;
12663;SDS011;6396;58.490;15.528;2023-03-12T14:24:50;0.73;;;0.73;;
12663;SDS011;6396;58.490;15.528;2023-03-12T14:27:27;0.97;;;0.90;;
12663;SDS011;6396;58.490;15.528;2023-03-12T14:29:56;0.70;;;0.70;;
12663;SDS011;6396;58.490;15.528;2023-03-12T14:32:31;1.10;;;0.80;;
12663;SDS011;6396;58.490;15.528;2023-03-12T14:35:15;0.80;;;0.80;;
12663;SDS011;6396;58.490;15.528;2023-03-12T14:37:46;0.60;;;0.60;;
12663;SDS011;6396;58.490;15.528;2023-03-12T14:40:24;0.83;;;0.77;;
12663;SDS011;6396;58.490;15.528;2023-03-12T14:43:01;0.60;;;0.60;;
12663;SDS011;6396;58.490;15.528;2023-03-12T14:45:28;0.73;;;0.60;;
12663;SDS011;6396;58.490;15.528;2023-03-12T14:47:57;0.83;;;0.80;;
12663;SDS011;6396;58.490;15.528;2023-03-12T14:50:25;1.33;;;0.80;;
12663;SDS011;6396;58.490;15.528;2023-03-12T14:52:54;0.70;;;0.70;;
12663;SDS011;6396;58.490;15.528;2023-03-12T14:55:35;1.00;;;0.90;;
12663;SDS011;6396;58.490;15.528;2023-03-12T14:58:02;3.17;;;0.90;;
12663;SDS011;6396;58.490;15.528;2023-03-12T15:00:31;1.10;;;0.97;;
12663;SDS011;6396;58.490;15.528;2023-03-12T15:03:02;0.80;;;0.80;;
12663;SDS011;6396;58.490;15.528;2023-03-12T15:05:30;1.27;;;0.80;;
12663;SDS011;6396;58.490;15.528;2023-03-12T15:08:00;1.13;;;0.90;;
12663;SDS011;6396;58.490;15.528;2023-03-12T15:10:29;1.10;;;1.00;;
12663;SDS011;6396;58.490;15.528;2023-03-12T15:12:58;1.00;;;0.90;;
12663;SDS011;6396;58.490;15.528;2023-03-12T15:15:34;4.87;;;1.20;;
12663;SDS011;6396;58.490;15.528;2023-03-12T15:18:07;3.27;;;1.20;;
12663;SDS011;6396;58.490;15.528;2023-03-12T15:20:41;1.10;;;0.83;;
12663;SDS011;6396;58.490;15.528;2023-03-12T15:23:11;1.30;;;0.97;;
12663;SDS011;6396;58.490;15.528;2023-03-12T15:25:43;2.40;;;1.20;;
12663;SDS011;6396;58.490;15.528;2023-03-12T15:28:25;1.73;;;1.00;;
12663;SDS011;6396;58.490;15.528;2023-03-12T15:31:04;0.90;;;0.90;;
12663;SDS011;6396;58.490;15.528;2023-03-12T15:33:35;1.40;;;1.10;;
12663;SDS011;6396;58.490;15.528;2023-03-12T15:36:05;1.07;;;0.90;;
12663;SDS011;6396;58.490;15.528;2023-03-12T15:38:45;3.77;;;1.60;;